East Fayetteville, North Carolina
Current Conditions -  °F | °C
As of 10:53 PM on Thursday 27 Nov 2014 (Local Time) from KFAY Reporting Station
Clear Clear  
Wind Chill: 34°   Ceiling: Unl
Heat Index: 39°   Visibility: 10mi
Dew Point: 27°   Wind: 7mph
Humidity: 62%   Direction: 340°NNW
Pressure: 30.25"   Gusts: NA
Location:  35.072°N, 78.8095°W
Report Text: KFAY 280353Z AUTO 34006KT 10SM CLR 04/M03 A3025 RMK AO2 SLP238 T00391028
Loading
Personal Weather Stations






























Interactive Weather Map New forecast layout! Learn more

10-Day Weather Forecast

Advertisements
Track Severe Weather on mobile